Time;durP1;ratioP1;P1;durP2;ratioP2;P2;SDS_P1;SDS_P2;PMS_P1;PMS_P2;Temp;Humidity;BMP_temperature;BMP_pressure;BME280_temperature;BME280_humidity;BME280_pressure;Samples;Min_cycle;Max_cycle;Signal;HPM_P1;HPM_P2
2023/01/04 00:01:21;;;;;;;8.50;2.60;;;8.10;99.90;;;;;;5028698;28;20128;-80
2023/01/04 00:03:47;;;;;;;11.15;3.28;;;8.20;99.90;;;;;;5024362;28;20056;-77
2023/01/04 00:06:15;;;;;;;10.45;2.58;;;8.10;99.90;;;;;;5027157;28;20032;-80
2023/01/04 00:08:42;;;;;;;10.32;2.90;;;8.30;99.90;;;;;;5033584;28;20392;-81
2023/01/04 00:11:19;;;;;;;15.98;3.47;;;8.20;99.90;;;;;;5047191;28;20468;-82
2023/01/04 00:13:46;;;;;;;12.63;2.80;;;8.30;99.90;;;;;;5076634;28;20045;-79
2023/01/04 00:16:15;;;;;;;9.15;2.67;;;8.10;99.90;;;;;;5016690;28;20037;-83
2023/01/04 00:18:41;;;;;;;8.75;2.50;;;8.10;99.90;;;;;;5010638;28;20053;-78
2023/01/04 00:21:27;;;;;;;15.57;3.22;;;8.30;99.90;;;;;;5021827;28;20033;-81
2023/01/04 00:23:56;;;;;;;11.77;2.80;;;8.30;99.90;;;;;;5048188;28;20124;-81
2023/01/04 00:26:25;;;;;;;16.20;3.20;;;8.10;99.90;;;;;;5024378;28;20029;-79
2023/01/04 00:28:55;;;;;;;14.80;2.92;;;8.30;99.90;;;;;;5016315;28;20052;-79
2023/01/04 00:31:22;;;;;;;17.80;3.20;;;8.30;99.90;;;;;;5049815;28;20134;-81
2023/01/04 00:33:50;;;;;;;13.25;3.25;;;8.30;99.90;;;;;;5067715;28;20395;-80
2023/01/04 00:36:37;;;;;;;14.13;3.20;;;8.10;99.90;;;;;;5031514;28;20653;-79
2023/01/04 00:39:05;;;;;;;14.38;3.05;;;8.00;99.90;;;;;;5037588;28;20052;-85
2023/01/04 00:41:49;;;;;;;9.00;3.10;;;8.10;99.90;;;;;;5045597;28;20086;-81
2023/01/04 00:44:15;;;;;;;12.07;3.00;;;7.90;99.90;;;;;;5015502;28;20033;-80
2023/01/04 00:46:41;;;;;;;13.00;3.22;;;8.00;99.90;;;;;;5021332;28;20135;-78
2023/01/04 00:49:09;;;;;;;12.45;3.55;;;8.00;99.90;;;;;;5056884;28;20024;-81
2023/01/04 00:51:41;;;;;;;12.90;3.35;;;8.20;99.90;;;;;;5033362;28;20048;-82
2023/01/04 00:54:11;;;;;;;10.70;3.35;;;8.10;99.90;;;;;;5061242;28;20504;-79
2023/01/04 00:56:37;;;;;;;13.13;3.38;;;8.20;99.90;;;;;;5061457;28;20060;-83
2023/01/04 00:59:04;;;;;;;12.68;3.42;;;7.90;99.90;;;;;;5035621;28;20045;-81
2023/01/04 01:01:32;;;;;;;12.88;3.63;;;7.80;99.90;;;;;;5011553;28;20056;-82
2023/01/04 01:04:00;;;;;;;9.57;3.45;;;8.20;99.90;;;;;;5009017;28;20053;-82
2023/01/04 01:06:29;;;;;;;11.93;3.33;;;8.00;99.90;;;;;;5020794;28;20036;-79
2023/01/04 01:08:55;;;;;;;11.52;3.60;;;8.20;99.90;;;;;;5038623;28;20036;-79
2023/01/04 01:11:21;;;;;;;11.23;3.20;;;8.20;99.90;;;;;;5023990;28;20052;-83
2023/01/04 01:13:47;;;;;;;13.18;3.92;;;7.90;99.90;;;;;;5018216;28;20367;-80
2023/01/04 01:16:17;;;;;;;12.25;3.40;;;8.30;99.90;;;;;;5049931;28;20036;-82
2023/01/04 01:18:43;;;;;;;12.70;3.80;;;7.90;99.90;;;;;;5014774;28;20136;-81
2023/01/04 01:21:16;;;;;;;12.10;3.80;;;8.20;99.90;;;;;;5043060;28;20079;-79
2023/01/04 01:23:45;;;;;;;7.28;3.13;;;7.80;99.90;;;;;;5021583;28;20040;-82
2023/01/04 01:26:14;;;;;;;13.25;3.85;;;8.00;99.90;;;;;;5038268;28;20053;-80
2023/01/04 01:28:40;;;;;;;10.77;3.50;;;7.90;99.90;;;;;;5035856;28;20045;-81
2023/01/04 01:31:07;;;;;;;8.88;3.25;;;7.90;99.90;;;;;;5013307;28;20040;-81
2023/01/04 01:33:39;;;;;;;8.80;3.67;;;8.20;99.90;;;;;;5043035;28;20108;-83
2023/01/04 01:36:06;;;;;;;9.77;3.25;;;7.90;99.90;;;;;;5001290;28;20395;-81
2023/01/04 01:38:33;;;;;;;9.27;3.47;;;8.00;99.90;;;;;;5052885;28;20053;-82
2023/01/04 01:40:58;;;;;;;10.57;3.67;;;7.90;99.90;;;;;;5031367;28;20036;-83
2023/01/04 01:43:46;;;;;;;8.93;3.25;;;8.30;99.90;;;;;;5036009;28;20045;-82
2023/01/04 01:46:13;;;;;;;11.82;3.65;;;7.90;99.90;;;;;;4931590;28;20062;-84
2023/01/04 01:48:40;;;;;;;12.23;3.15;;;8.10;99.90;;;;;;4939308;28;20067;-83
2023/01/04 01:51:06;;;;;;;7.00;3.33;;;8.20;99.90;;;;;;4972524;28;20094;-84
2023/01/04 01:53:36;;;;;;;10.35;3.75;;;7.90;99.90;;;;;;4945788;29;20051;-82
2023/01/04 01:56:04;;;;;;;11.23;3.30;;;8.10;99.90;;;;;;4949987;28;20047;-85
2023/01/04 01:58:41;;;;;;;9.52;3.17;;;8.30;99.90;;;;;;4947593;29;20081;-81
2023/01/04 02:01:08;;;;;;;11.10;3.20;;;8.10;99.90;;;;;;4927211;29;20444;-81
2023/01/04 02:03:39;;;;;;;8.45;2.95;;;7.90;99.90;;;;;;4915781;29;20382;-84
2023/01/04 02:06:12;;;;;;;5.65;2.70;;;8.30;99.90;;;;;;4929966;29;20051;-84
2023/01/04 02:08:41;;;;;;;6.28;2.58;;;8.00;99.90;;;;;;4948330;28;20078;-81
2023/01/04 02:11:07;;;;;;;6.55;2.60;;;8.10;99.90;;;;;;4932723;29;20069;-82
2023/01/04 02:16:36;;;;;;;6.60;2.70;;;8.20;99.90;;;;;;4913835;29;20538;-80
2023/01/04 02:19:34;;;;;;;5.50;2.50;;;8.40;99.90;;;;;;4940096;29;20066;-81
2023/01/04 02:22:21;;;;;;;6.22;2.30;;;8.10;99.90;;;;;;4956194;29;20430;-81
2023/01/04 02:25:11;;;;;;;5.63;2.25;;;8.30;99.90;;;;;;5032083;28;20042;-79
2023/01/04 02:28:06;;;;;;;3.45;1.90;;;8.30;99.90;;;;;;5044228;28;20090;-80
2023/01/04 02:30:37;;;;;;;7.63;2.00;;;8.50;99.90;;;;;;4941012;28;20035;-83
2023/01/04 02:33:43;;;;;;;6.47;2.30;;;8.40;99.90;;;;;;4970056;28;20055;-83
2023/01/04 02:36:17;;;;;;;4.40;1.83;;;8.10;99.90;;;;;;4954675;28;20055;-82
2023/01/04 02:38:49;;;;;;;5.15;1.63;;;8.50;99.90;;;;;;4970567;28;20066;-82
2023/01/04 02:41:30;;;;;;;4.68;1.80;;;8.30;99.90;;;;;;4937033;29;20047;-80
2023/01/04 02:47:10;;;;;;;4.05;1.65;;;8.40;99.90;;;;;;4935148;29;20452;-78
2023/01/04 02:52:21;;;;;;;3.30;1.43;;;8.30;99.90;;;;;;4942643;28;20232;-83
2023/01/04 02:54:50;;;;;;;3.45;1.70;;;8.60;99.90;;;;;;4958360;28;20062;-81
2023/01/04 02:57:38;;;;;;;6.85;1.52;;;8.40;99.90;;;;;;4955203;28;20121;-83
2023/01/04 03:00:22;;;;;;;2.90;1.50;;;8.30;99.90;;;;;;4975115;28;20098;-79
2023/01/04 03:06:15;;;;;;;4.25;1.30;;;8.70;99.90;;;;;;4970403;28;20047;-84
2023/01/04 03:09:03;;;;;;;2.17;1.27;;;8.70;99.90;;;;;;5032669;28;20041;-83
2023/01/04 03:14:42;;;;;;;2.67;1.25;;;8.80;99.90;;;;;;5016268;28;20060;-79
2023/01/04 03:17:12;;;;;;;6.13;1.17;;;8.80;99.90;;;;;;5047146;28;20073;-82
2023/01/04 03:19:50;;;;;;;2.95;1.00;;;8.80;99.90;;;;;;5026036;28;20123;-80
2023/01/04 03:36:27;;;;;;;1.20;1.10;;;9.00;99.90;;;;;;5050239;28;20056;-80
2023/01/04 03:48:32;;;;;;;2.83;1.15;;;8.90;99.90;;;;;;5048522;28;20433;-82
2023/01/04 03:51:21;;;;;;;2.20;1.25;;;9.30;99.90;;;;;;5022119;28;20447;-82
2023/01/04 03:54:04;;;;;;;6.47;1.60;;;8.80;99.90;;;;;;5011129;28;20037;-81
2023/01/04 03:56:32;;;;;;;2.80;1.33;;;9.20;99.90;;;;;;5033945;28;20053;-82
2023/01/04 03:58:59;;;;;;;2.42;1.50;;;8.90;99.90;;;;;;5019188;28;20037;-79
2023/01/04 04:01:26;;;;;;;1.88;1.30;;;8.90;99.90;;;;;;5065593;28;20064;-79
2023/01/04 04:09:22;;;;;;;3.70;1.70;;;9.50;99.90;;;;;;5037534;28;20045;-79
2023/01/04 04:11:48;;;;;;;2.40;1.70;;;9.70;99.90;;;;;;5058394;28;20049;-82
2023/01/04 04:14:13;;;;;;;1.80;1.70;;;9.50;99.90;;;;;;5041739;28;20476;-84
2023/01/04 04:16:39;;;;;;;3.38;1.67;;;9.60;99.90;;;;;;5024423;28;20045;-81
2023/01/04 04:19:05;;;;;;;2.28;1.67;;;9.50;99.90;;;;;;5060136;28;20432;-78
2023/01/04 04:21:30;;;;;;;2.00;1.80;;;9.70;99.90;;;;;;5027919;28;20032;-79
2023/01/04 04:23:56;;;;;;;3.20;2.30;;;9.70;99.90;;;;;;5035435;28;20049;-81
2023/01/04 04:26:23;;;;;;;2.40;2.20;;;9.90;99.90;;;;;;5035966;28;20435;-78
2023/01/04 04:28:49;;;;;;;2.67;2.35;;;9.60;99.90;;;;;;5055624;28;20063;-80
2023/01/04 04:31:14;;;;;;;3.47;2.60;;;10.00;99.90;;;;;;5068232;28;20040;-81
2023/01/04 04:33:40;;;;;;;2.47;2.28;;;10.00;99.90;;;;;;5035431;28;20047;-81
2023/01/04 04:36:06;;;;;;;2.80;2.30;;;9.90;99.90;;;;;;5054362;28;20036;-78
2023/01/04 04:38:32;;;;;;;2.50;2.20;;;9.90;99.90;;;;;;5038338;28;20042;-83
2023/01/04 04:43:42;;;;;;;3.08;2.70;;;10.00;99.90;;;;;;5066459;28;20159;-81
2023/01/04 04:46:07;;;;;;;3.50;2.72;;;10.20;99.90;;;;;;5049875;28;20216;-78
2023/01/04 04:48:33;;;;;;;3.25;2.88;;;10.30;99.90;;;;;;5013953;28;20075;-84
2023/01/04 04:50:59;;;;;;;3.95;3.20;;;10.40;99.90;;;;;;5030794;28;20074;-83
2023/01/04 04:53:24;;;;;;;4.25;2.80;;;10.00;99.90;;;;;;5008907;28;20040;-78
2023/01/04 04:55:51;;;;;;;3.08;2.63;;;10.10;99.90;;;;;;5018096;28;20053;-82
2023/01/04 04:58:17;;;;;;;3.67;2.47;;;10.10;99.90;;;;;;5050058;28;20116;-79
2023/01/04 05:00:43;;;;;;;3.95;3.10;;;10.00;99.90;;;;;;5056212;28;20052;-79
2023/01/04 05:03:08;;;;;;;5.28;3.70;;;10.60;99.90;;;;;;5025986;28;20045;-81
2023/01/04 05:05:34;;;;;;;4.20;3.38;;;10.10;99.90;;;;;;5045492;28;20103;-84
2023/01/04 05:08:00;;;;;;;4.20;3.80;;;10.00;99.90;;;;;;5031160;28;20115;-81
2023/01/04 05:10:25;;;;;;;4.00;3.33;;;10.50;99.90;;;;;;5012458;28;20041;-81
2023/01/04 05:13:00;;;;;;;3.50;3.20;;;10.20;99.90;;;;;;5010865;28;20586;-81
2023/01/04 05:15:38;;;;;;;4.15;3.03;;;10.60;99.90;;;;;;5014523;28;20157;-81
2023/01/04 05:18:05;;;;;;;4.03;2.95;;;10.20;99.90;;;;;;5014505;28;20057;-80
2023/01/04 05:20:31;;;;;;;3.72;3.38;;;10.40;99.90;;;;;;5013667;28;20114;-83
2023/01/04 05:23:16;;;;;;;4.55;3.40;;;10.60;99.90;;;;;;5016811;28;20520;-82
2023/01/04 05:25:42;;;;;;;6.13;3.70;;;10.20;99.90;;;;;;5003815;28;20041;-79
2023/01/04 05:28:09;;;;;;;5.85;3.15;;;10.50;99.90;;;;;;5005283;28;20068;-80
2023/01/04 05:30:50;;;;;;;4.43;3.72;;;10.30;99.90;;;;;;5033402;28;20125;-84
2023/01/04 05:33:21;;;;;;;5.22;3.53;;;10.30;99.90;;;;;;5036790;28;20360;-83
2023/01/04 05:35:47;;;;;;;3.33;2.67;;;10.80;99.90;;;;;;5013870;28;20045;-83
2023/01/04 05:38:13;;;;;;;6.10;3.55;;;10.70;99.90;;;;;;5030522;28;20396;-82
2023/01/04 05:40:39;;;;;;;3.20;2.85;;;10.40;99.90;;;;;;5039651;28;20049;-82
2023/01/04 05:43:05;;;;;;;5.60;3.05;;;10.80;99.90;;;;;;5035888;28;20037;-83
2023/01/04 05:45:30;;;;;;;6.15;3.25;;;10.60;99.90;;;;;;5067901;28;20349;-82
2023/01/04 05:47:56;;;;;;;4.00;2.78;;;10.90;99.90;;;;;;5041635;28;20045;-82
2023/01/04 05:50:22;;;;;;;5.95;2.95;;;10.40;99.90;;;;;;5013847;28;20044;-80
2023/01/04 05:52:49;;;;;;;4.40;2.83;;;10.70;99.90;;;;;;5014027;28;20538;-82
2023/01/04 05:55:15;;;;;;;7.70;2.95;;;10.80;99.90;;;;;;4997038;28;20044;-81
2023/01/04 05:57:41;;;;;;;4.32;2.45;;;10.80;99.90;;;;;;4997977;28;20037;-78
2023/01/04 06:00:08;;;;;;;4.70;2.83;;;10.80;99.90;;;;;;4999970;28;20038;-81
2023/01/04 06:02:34;;;;;;;1.90;1.70;;;10.50;99.90;;;;;;5035367;28;20094;-82
2023/01/04 06:04:59;;;;;;;2.75;1.90;;;10.30;99.90;;;;;;5024142;28;20071;-82
2023/01/04 06:07:26;;;;;;;3.40;2.10;;;10.30;99.90;;;;;;5074389;28;20040;-79
2023/01/04 06:09:52;;;;;;;2.60;1.90;;;10.40;99.90;;;;;;5036316;28;20116;-80
2023/01/04 06:12:18;;;;;;;3.58;1.88;;;10.80;99.90;;;;;;5068898;28;20416;-81
2023/01/04 06:14:45;;;;;;;4.75;2.10;;;10.80;99.90;;;;;;5056286;28;20041;-80
2023/01/04 06:17:11;;;;;;;2.35;1.80;;;10.40;99.90;;;;;;5036511;28;20075;-78
2023/01/04 06:19:36;;;;;;;4.47;2.00;;;10.40;99.90;;;;;;5039339;28;20055;-78
2023/01/04 06:22:04;;;;;;;3.28;1.88;;;10.90;99.90;;;;;;5051100;28;20396;-78
2023/01/04 06:24:29;;;;;;;5.30;2.15;;;10.40;99.90;;;;;;5073834;28;20094;-78
2023/01/04 06:26:55;;;;;;;5.20;2.40;;;10.40;99.90;;;;;;5060893;28;20045;-75
2023/01/04 06:29:21;;;;;;;3.05;2.38;;;10.80;99.90;;;;;;5089540;28;20037;-79
2023/01/04 06:31:46;;;;;;;3.22;2.30;;;10.90;99.90;;;;;;5054099;28;20049;-78
2023/01/04 06:34:13;;;;;;;6.03;2.47;;;10.70;99.90;;;;;;5038472;28;20041;-79
2023/01/04 06:36:40;;;;;;;5.18;2.47;;;11.00;99.90;;;;;;5026355;28;20041;-76
2023/01/04 06:39:07;;;;;;;8.18;2.40;;;11.00;99.90;;;;;;5022266;28;20409;-80
2023/01/04 06:41:33;;;;;;;4.88;2.22;;;10.50;99.90;;;;;;5015974;28;20053;-80
2023/01/04 06:43:59;;;;;;;8.27;2.60;;;11.00;99.90;;;;;;5044586;28;20071;-78
2023/01/04 06:46:25;;;;;;;5.47;2.20;;;10.80;99.90;;;;;;5045782;28;20041;-80
2023/01/04 06:48:52;;;;;;;2.60;1.70;;;10.50;99.90;;;;;;5053609;28;20104;-80
2023/01/04 06:51:19;;;;;;;4.53;1.80;;;10.70;99.90;;;;;;5035567;28;20045;-82
2023/01/04 06:53:45;;;;;;;8.93;1.90;;;10.50;99.90;;;;;;5039146;28;20068;-79
2023/01/04 06:56:11;;;;;;;3.45;1.83;;;11.00;99.90;;;;;;5028802;28;20056;-78
2023/01/04 06:58:36;;;;;;;2.40;1.50;;;11.00;99.90;;;;;;5049833;28;20072;-78
2023/01/04 07:01:03;;;;;;;4.68;2.00;;;10.50;99.90;;;;;;5050329;28;20124;-78
2023/01/04 07:03:29;;;;;;;3.88;1.70;;;10.90;99.90;;;;;;5031098;28;20045;-80
2023/01/04 07:05:54;;;;;;;4.53;1.58;;;11.10;99.90;;;;;;5064981;28;20041;-79
2023/01/04 07:08:20;;;;;;;4.05;1.90;;;11.00;99.90;;;;;;5030519;28;20045;-81
2023/01/04 07:10:46;;;;;;;3.53;1.70;;;10.70;99.90;;;;;;5060352;28;20052;-77
2023/01/04 07:13:13;;;;;;;3.22;1.90;;;11.00;99.90;;;;;;5067422;28;20037;-77
2023/01/04 07:15:39;;;;;;;4.50;1.90;;;10.60;99.90;;;;;;5032156;28;20484;-78
2023/01/04 07:18:05;;;;;;;6.28;2.03;;;10.60;99.90;;;;;;5047619;28;20037;-78
2023/01/04 07:20:30;;;;;;;6.32;2.20;;;11.10;99.90;;;;;;5030630;28;20037;-79
2023/01/04 07:22:56;;;;;;;8.70;2.60;;;10.90;99.90;;;;;;5064475;28;20376;-82
2023/01/04 07:25:22;;;;;;;6.97;2.70;;;10.70;99.90;;;;;;5027362;28;20162;-77
2023/01/04 07:27:52;;;;;;;10.48;3.13;;;11.30;99.90;;;;;;5027176;28;20133;-81
2023/01/04 07:30:20;;;;;;;6.03;2.60;;;11.20;99.90;;;;;;5045759;28;20045;-81
2023/01/04 07:32:45;;;;;;;8.00;3.85;;;11.20;99.90;;;;;;5045431;28;20124;-77
2023/01/04 07:35:11;;;;;;;6.72;3.08;;;10.60;99.90;;;;;;5044495;28;20124;-79
2023/01/04 07:38:01;;;;;;;8.35;2.45;;;11.20;99.90;;;;;;5026191;28;20059;-78
2023/01/04 07:40:27;;;;;;;7.43;2.10;;;11.20;99.90;;;;;;5026568;28;20080;-82
2023/01/04 07:42:57;;;;;;;3.63;1.70;;;11.30;99.90;;;;;;5058618;28;20073;-79
2023/01/04 07:45:23;;;;;;;11.60;2.30;;;10.90;99.90;;;;;;5058029;28;20052;-80
2023/01/04 07:47:49;;;;;;;5.32;2.00;;;10.70;99.90;;;;;;5043007;28;20045;-80
2023/01/04 07:50:14;;;;;;;5.35;2.50;;;11.30;99.90;;;;;;5028082;28;20049;-78
2023/01/04 07:52:40;;;;;;;6.57;2.22;;;10.80;99.90;;;;;;5006286;28;20052;-82
2023/01/04 07:55:06;;;;;;;6.65;1.95;;;11.10;99.90;;;;;;5061958;28;20056;-81
2023/01/04 07:57:32;;;;;;;7.25;1.83;;;11.20;99.90;;;;;;5032390;28;20083;-78
2023/01/04 07:59:58;;;;;;;5.75;1.95;;;11.10;99.90;;;;;;5012899;28;20067;-76
2023/01/04 08:02:24;;;;;;;5.88;1.70;;;11.20;99.90;;;;;;5047104;28;20053;-79
2023/01/04 08:04:49;;;;;;;6.38;2.10;;;10.90;99.90;;;;;;5059809;28;20036;-80
2023/01/04 08:07:16;;;;;;;5.32;1.90;;;10.60;99.90;;;;;;5063442;28;20044;-80
2023/01/04 08:09:41;;;;;;;2.60;1.50;;;10.70;99.90;;;;;;5013022;28;20073;-80
2023/01/04 08:12:07;;;;;;;7.93;2.10;;;11.20;99.90;;;;;;5012418;28;20072;-80
2023/01/04 08:14:33;;;;;;;6.05;1.73;;;10.60;99.90;;;;;;5058427;28;20087;-80
2023/01/04 08:16:58;;;;;;;5.90;1.52;;;11.00;99.90;;;;;;5066156;28;20057;-79
2023/01/04 08:19:24;;;;;;;8.05;1.80;;;10.80;99.90;;;;;;5047475;28;20066;-77
2023/01/04 08:21:50;;;;;;;2.80;1.70;;;10.80;99.90;;;;;;5034904;28;20415;-78
2023/01/04 08:27:56;;;;;;;3.63;1.52;;;10.90;99.90;;;;;;5053574;28;20035;-78
2023/01/04 08:30:22;;;;;;;4.55;1.50;;;10.70;99.90;;;;;;5041615;28;20048;-79
2023/01/04 08:32:47;;;;;;;4.30;1.83;;;11.20;99.90;;;;;;5067767;28;20057;-80
2023/01/04 08:35:13;;;;;;;5.68;1.38;;;11.20;99.90;;;;;;5062395;28;20045;-80
2023/01/04 08:37:39;;;;;;;3.45;1.70;;;10.70;99.90;;;;;;5045854;28;20448;-78
2023/01/04 08:40:05;;;;;;;3.22;1.35;;;11.10;99.90;;;;;;5025357;28;20057;-79
2023/01/04 08:42:32;;;;;;;3.55;1.35;;;11.20;99.90;;;;;;5049635;28;20133;-82
2023/01/04 08:45:01;;;;;;;3.67;1.40;;;11.20;99.90;;;;;;5058577;28;20120;-81
2023/01/04 08:47:31;;;;;;;4.13;1.50;;;11.30;99.90;;;;;;5029047;28;20476;-85
2023/01/04 08:49:58;;;;;;;4.97;1.30;;;11.20;99.90;;;;;;5028764;28;20053;-80
2023/01/04 08:52:23;;;;;;;4.43;1.35;;;10.70;99.90;;;;;;5033883;28;20048;-79
2023/01/04 08:54:49;;;;;;;4.40;1.05;;;10.70;99.90;;;;;;5039530;28;20491;-80
2023/01/04 08:57:18;;;;;;;3.05;1.25;;;11.20;99.90;;;;;;5048611;28;20094;-78
2023/01/04 08:59:45;;;;;;;2.60;1.10;;;11.10;99.90;;;;;;5037484;28;20037;-82
2023/01/04 09:02:19;;;;;;;4.18;1.10;;;10.80;99.90;;;;;;5046188;28;20056;-80
2023/01/04 09:04:45;;;;;;;4.20;1.10;;;11.30;99.90;;;;;;5016774;28;20137;-80
2023/01/04 09:07:11;;;;;;;6.18;1.33;;;11.20;99.90;;;;;;5045547;28;20127;-81
2023/01/04 09:09:36;;;;;;;6.63;1.27;;;11.30;99.90;;;;;;5011145;28;20507;-79
2023/01/04 09:12:03;;;;;;;7.38;1.80;;;10.80;99.90;;;;;;5059568;28;20056;-84
2023/01/04 09:14:30;;;;;;;5.78;1.35;;;11.20;99.90;;;;;;5026052;28;20400;-77
2023/01/04 09:16:56;;;;;;;7.38;1.92;;;10.90;99.90;;;;;;5023528;28;20587;-80
2023/01/04 09:19:22;;;;;;;8.13;1.70;;;11.10;99.90;;;;;;5062866;28;20052;-82
2023/01/04 09:21:48;;;;;;;6.50;1.70;;;11.00;99.90;;;;;;5012974;28;20049;-79
2023/01/04 09:24:14;;;;;;;7.28;1.60;;;10.80;99.90;;;;;;5026494;28;20049;-80
2023/01/04 09:26:39;;;;;;;9.57;1.88;;;10.80;99.90;;;;;;5043013;28;20132;-79
2023/01/04 09:29:05;;;;;;;9.70;2.33;;;10.80;99.90;;;;;;5063151;28;20131;-78
2023/01/04 09:31:31;;;;;;;13.55;2.70;;;11.10;99.90;;;;;;5031848;28;20119;-79
2023/01/04 09:33:58;;;;;;;9.48;2.15;;;10.90;99.90;;;;;;5043271;28;20052;-79
2023/01/04 09:36:24;;;;;;;11.98;2.72;;;11.10;99.90;;;;;;5032740;28;20044;-78
2023/01/04 09:38:53;;;;;;;11.07;2.75;;;11.30;99.90;;;;;;5046487;28;20114;-80
2023/01/04 09:41:18;;;;;;;13.10;3.03;;;10.80;99.90;;;;;;5018135;28;20134;-80
2023/01/04 09:43:54;;;;;;;12.85;2.80;;;11.20;99.90;;;;;;5034237;28;20084;-77
2023/01/04 09:46:31;;;;;;;16.52;3.22;;;10.90;99.90;;;;;;5071267;28;20049;-81
2023/01/04 09:49:35;;;;;;;13.88;2.90;;;11.40;99.90;;;;;;5064968;28;20040;-81
2023/01/04 09:52:46;;;;;;;16.65;3.10;;;10.80;99.90;;;;;;5042654;28;20397;-78
2023/01/04 09:55:24;;;;;;;14.23;2.92;;;11.00;99.90;;;;;;4999107;28;20090;-79
2023/01/04 09:58:04;;;;;;;15.82;3.00;;;11.00;99.90;;;;;;5016252;28;20064;-79
2023/01/04 10:00:39;;;;;;;22.25;3.55;;;11.00;99.90;;;;;;4981865;28;20069;-79
2023/01/04 10:03:24;;;;;;;15.80;2.97;;;10.90;99.90;;;;;;4985857;28;20047;-78
2023/01/04 10:05:53;;;;;;;17.85;3.53;;;11.20;99.90;;;;;;4974348;28;20054;-80
2023/01/04 10:08:19;;;;;;;19.27;3.38;;;11.10;99.90;;;;;;4986362;28;20043;-79
2023/01/04 10:11:24;;;;;;;20.00;3.30;;;11.00;99.90;;;;;;4977840;28;20058;-81
2023/01/04 10:14:19;;;;;;;21.40;3.63;;;11.10;99.90;;;;;;4956981;28;20196;-82
2023/01/04 10:16:51;;;;;;;21.73;3.05;;;11.60;99.90;;;;;;4991171;28;20405;-77
2023/01/04 10:19:56;;;;;;;19.77;3.60;;;11.60;99.90;;;;;;4957322;28;20039;-78
2023/01/04 10:22:38;;;;;;;21.77;3.65;;;11.60;99.90;;;;;;4986838;28;20137;-78
2023/01/04 10:25:26;;;;;;;21.92;3.53;;;11.60;99.90;;;;;;4955421;28;20125;-81
2023/01/04 10:28:19;;;;;;;27.83;3.88;;;11.30;99.90;;;;;;4962796;28;20054;-78
2023/01/04 10:31:00;;;;;;;26.90;4.45;;;11.20;99.90;;;;;;5030070;28;20512;-81
2023/01/04 10:33:46;;;;;;;30.35;4.15;;;11.70;99.90;;;;;;5017795;28;20136;-81
2023/01/04 10:36:19;;;;;;;24.85;4.07;;;11.70;99.90;;;;;;5001996;28;20058;-79
2023/01/04 10:38:46;;;;;;;23.45;3.90;;;11.70;99.90;;;;;;5011041;28;20049;-80
2023/01/04 10:41:28;;;;;;;31.15;4.53;;;11.40;99.90;;;;;;5025523;28;20060;-82
2023/01/04 10:44:16;;;;;;;30.58;4.35;;;11.50;99.90;;;;;;4992366;28;20048;-79
2023/01/04 10:46:46;;;;;;;28.15;3.65;;;11.50;99.90;;;;;;5024179;28;20050;-80
2023/01/04 10:49:22;;;;;;;31.27;4.65;;;11.50;99.90;;;;;;4992674;28;20139;-82
2023/01/04 10:51:59;;;;;;;33.90;4.82;;;11.50;99.90;;;;;;5008321;28;21551;-78
2023/01/04 10:54:51;;;;;;;28.77;3.78;;;11.80;99.90;;;;;;4991674;28;20057;-80
2023/01/04 10:57:31;;;;;;;33.65;5.13;;;12.00;99.90;;;;;;5031070;28;20091;-80
2023/01/04 11:00:23;;;;;;;36.30;5.93;;;11.90;99.90;;;;;;5046409;28;20154;-81
2023/01/04 11:03:17;;;;;;;35.72;5.35;;;12.20;99.90;;;;;;5017062;28;20163;-82
2023/01/04 11:05:49;;;;;;;38.83;5.90;;;12.20;99.90;;;;;;5052728;28;20049;-81
2023/01/04 11:08:22;;;;;;;32.88;5.57;;;12.20;99.90;;;;;;5035617;28;20045;-81
2023/01/04 11:11:02;;;;;;;38.53;6.03;;;11.80;99.90;;;;;;5034144;28;20053;-79
2023/01/04 11:13:28;;;;;;;49.08;6.72;;;12.10;99.90;;;;;;5019363;28;20060;-79
2023/01/04 11:15:54;;;;;;;49.38;6.95;;;12.30;99.90;;;;;;5026660;28;20456;-82
2023/01/04 11:18:20;;;;;;;38.75;6.10;;;11.90;99.90;;;;;;5024433;28;20095;-79
2023/01/04 11:20:46;;;;;;;35.85;5.40;;;11.80;99.90;;;;;;5068297;28;20231;-81
2023/01/04 11:23:14;;;;;;;38.05;5.63;;;11.90;99.90;;;;;;5054407;28;20219;-76
2023/01/04 11:26:14;;;;;;;40.70;5.68;;;12.30;99.90;;;;;;5047839;28;20048;-79
2023/01/04 11:28:52;;;;;;;33.58;5.78;;;11.90;99.90;;;;;;4966206;28;20051;-79
2023/01/04 11:32:00;;;;;;;29.30;4.25;;;11.90;99.90;;;;;;4966039;28;20039;-80
2023/01/04 11:34:51;;;;;;;25.08;4.22;;;12.20;99.90;;;;;;4952597;28;20077;-78
2023/01/04 11:37:24;;;;;;;24.70;3.90;;;11.90;99.90;;;;;;4968912;28;20038;-79
2023/01/04 11:39:50;;;;;;;27.80;4.85;;;12.30;99.90;;;;;;4971684;28;20046;-82
2023/01/04 11:42:20;;;;;;;32.33;4.78;;;12.30;99.90;;;;;;4966645;28;20418;-81
2023/01/04 11:44:58;;;;;;;35.72;5.93;;;12.20;99.90;;;;;;4950177;28;21206;-81
2023/01/04 11:47:26;;;;;;;43.53;6.18;;;12.10;99.90;;;;;;4965705;28;20118;-79
2023/01/04 11:49:54;;;;;;;50.15;6.82;;;12.10;99.90;;;;;;4968681;28;20150;-80
2023/01/04 11:52:36;;;;;;;50.67;6.32;;;11.70;99.90;;;;;;4968861;28;20043;-83
2023/01/04 11:55:24;;;;;;;44.65;5.80;;;11.70;99.90;;;;;;4980455;28;20479;-82
2023/01/04 11:58:08;;;;;;;44.25;5.53;;;11.80;99.90;;;;;;4949222;28;20541;-81
2023/01/04 12:00:34;;;;;;;39.72;5.80;;;12.00;99.90;;;;;;4951770;28;20076;-79
2023/01/04 12:03:14;;;;;;;36.92;5.32;;;12.10;99.90;;;;;;4978246;28;20626;-82
2023/01/04 12:05:41;;;;;;;37.03;6.10;;;11.80;99.90;;;;;;4995527;28;20063;-78
2023/01/04 12:08:26;;;;;;;35.15;5.18;;;12.00;99.90;;;;;;5031081;28;20476;-77
2023/01/04 12:10:51;;;;;;;;;;;11.80;99.90;;;;;;5014353;28;20121;-78
2023/01/04 12:13:17;;;;;;;32.63;5.20;;;11.90;99.90;;;;;;5032429;28;20002;-81
2023/01/04 12:16:20;;;;;;;32.35;5.57;;;11.90;99.90;;;;;;5036346;28;20040;-77
2023/01/04 12:18:46;;;;;;;34.20;4.95;;;12.30;99.90;;;;;;5055999;28;20037;-80
2023/01/04 12:21:21;;;;;;;29.98;4.85;;;12.30;99.90;;;;;;5057056;28;20041;-82
2023/01/04 12:23:48;;;;;;;34.47;5.00;;;12.00;99.90;;;;;;5025813;28;20210;-81
2023/01/04 12:26:15;;;;;;;25.00;4.30;;;12.00;99.90;;;;;;5042088;28;20044;-78
2023/01/04 12:28:47;;;;;;;29.00;4.35;;;12.10;99.90;;;;;;5025561;28;20044;-81
2023/01/04 12:31:18;;;;;;;25.92;3.90;;;12.30;99.90;;;;;;5041965;28;20048;-79
2023/01/04 12:33:56;;;;;;;27.13;4.78;;;12.40;99.90;;;;;;5053209;28;20502;-81
2023/01/04 12:36:37;;;;;;;26.67;3.83;;;12.50;99.90;;;;;;5026198;28;21489;-80
2023/01/04 12:39:12;;;;;;;24.95;3.78;;;12.40;99.90;;;;;;5026861;28;20051;-80
2023/01/04 12:41:37;;;;;;;24.10;3.38;;;12.10;99.90;;;;;;5012129;28;20060;-80
2023/01/04 12:44:35;;;;;;;20.88;3.30;;;12.40;99.90;;;;;;5040442;28;20876;-81
2023/01/04 12:50:17;;;;;;;;;;;12.10;99.90;;;;;;4976880;28;20542;-83
2023/01/04 12:52:49;;;;;;;17.98;2.90;;;11.90;99.90;;;;;;4977006;28;19922;-82
2023/01/04 12:59:30;;;;;;;14.07;2.85;;;12.10;99.90;;;;;;4965894;28;20041;-81
2023/01/04 13:02:24;;;;;;;13.93;3.22;;;12.30;99.90;;;;;;4967220;28;20054;-80
2023/01/04 13:04:53;;;;;;;19.63;3.20;;;12.00;99.90;;;;;;4946582;28;20098;-81
2023/01/04 13:07:25;;;;;;;15.05;2.50;;;12.20;99.90;;;;;;4961024;28;20159;-77
2023/01/04 13:09:56;;;;;;;18.00;2.97;;;12.20;99.90;;;;;;4955355;28;20082;-81
2023/01/04 13:12:36;;;;;;;22.48;3.38;;;12.10;99.90;;;;;;4946328;28;20043;-79
2023/01/04 13:15:09;;;;;;;19.83;3.67;;;11.80;99.90;;;;;;4965881;28;20114;-80
2023/01/04 13:17:39;;;;;;;25.95;4.03;;;12.20;99.90;;;;;;4951829;28;20047;-81
2023/01/04 13:20:24;;;;;;;13.73;2.63;;;12.00;99.90;;;;;;4951306;28;20147;-79
2023/01/04 13:22:53;;;;;;;23.60;3.40;;;11.90;99.90;;;;;;4970425;28;20438;-82
2023/01/04 13:25:21;;;;;;;26.60;3.80;;;12.20;99.90;;;;;;4976341;28;20054;-78
2023/01/04 13:27:58;;;;;;;19.75;3.65;;;12.10;99.90;;;;;;5004808;28;20056;-76
2023/01/04 13:30:36;;;;;;;20.38;3.50;;;12.00;99.90;;;;;;5020687;28;20493;-79
2023/01/04 13:33:18;;;;;;;28.83;4.15;;;12.20;99.90;;;;;;5022334;28;20112;-81
2023/01/04 13:35:56;;;;;;;28.25;4.25;;;11.80;99.90;;;;;;5009733;28;20049;-78
2023/01/04 13:38:22;;;;;;;27.50;4.28;;;12.00;99.90;;;;;;5026727;28;20066;-81
2023/01/04 13:40:48;;;;;;;29.58;3.88;;;11.80;99.90;;;;;;5005854;28;20650;-79
2023/01/04 13:43:31;;;;;;;25.92;4.30;;;12.10;99.90;;;;;;5037816;28;20054;-79
2023/01/04 13:46:10;;;;;;;28.98;4.20;;;12.10;99.90;;;;;;5024307;28;20038;-82
2023/01/04 13:48:39;;;;;;;31.60;4.65;;;11.90;99.90;;;;;;5015012;28;20490;-81
2023/01/04 13:51:29;;;;;;;33.60;5.05;;;12.00;99.90;;;;;;5015179;28;20038;-76
2023/01/04 13:54:31;;;;;;;31.20;4.57;;;12.00;99.90;;;;;;5018526;28;20049;-78
2023/01/04 13:57:08;;;;;;;30.08;4.57;;;12.10;99.90;;;;;;4909627;28;20074;-78
2023/01/04 13:59:35;;;;;;;31.48;4.35;;;12.00;99.90;;;;;;4945010;28;20039;-81
2023/01/04 14:02:00;;;;;;;25.48;4.18;;;11.80;99.90;;;;;;4929307;28;20547;-80
2023/01/04 14:04:29;;;;;;;33.28;5.32;;;11.80;99.90;;;;;;4959075;28;20130;-81
2023/01/04 14:06:58;;;;;;;27.20;4.90;;;12.00;99.90;;;;;;4951454;28;20059;-83